createdAt,value
2023-03-23T16:02:30.835Z,34.31
2023-03-23T16:05:02.814Z,34.91
2023-03-23T16:07:32.047Z,34.91
2023-03-23T16:10:01.276Z,35.10
2023-03-23T16:12:32.546Z,35.40
2023-03-23T16:15:02.212Z,35.60
2023-03-23T16:17:33.684Z,36.51
2023-03-23T16:20:10.546Z,36.12
2023-03-23T16:22:39.716Z,36.73
2023-03-23T16:25:12.879Z,36.96
2023-03-23T16:27:43.192Z,38.03
2023-03-23T16:30:25.414Z,37.77
2023-03-23T16:33:41.989Z,38.59
2023-03-23T16:36:13.795Z,38.86
2023-03-23T16:38:49.612Z,39.73
2023-03-23T16:41:21.124Z,40.63
2023-03-23T16:43:50.633Z,41.16
2023-03-23T16:46:22.802Z,41.87
2023-03-23T16:48:53.034Z,42.06
2023-03-23T16:51:22.296Z,41.88
2023-03-23T16:53:51.638Z,42.63
2023-03-23T16:56:23.308Z,42.72
2023-03-23T16:58:52.389Z,42.61
2023-03-23T17:01:22.228Z,42.88
2023-03-23T17:03:52.223Z,42.99
2023-03-23T17:06:21.631Z,43.79
2023-03-23T17:08:51.225Z,44.72
2023-03-23T17:11:24.157Z,43.83
2023-03-23T17:13:53.465Z,44.58
2023-03-23T17:16:23.534Z,44.14
2023-03-23T17:18:54.197Z,44.71
2023-03-23T17:21:26.245Z,46.88
2023-03-23T17:23:56.808Z,46.30
2023-03-23T17:26:29.074Z,45.45
2023-03-23T17:28:59.422Z,45.57
2023-03-23T17:31:29.086Z,46.28
2023-03-23T17:33:59.626Z,46.39
2023-03-23T17:36:28.858Z,47.07
2023-03-23T17:38:58.032Z,47.78
2023-03-23T17:41:28.316Z,48.32
2023-03-23T17:43:57.908Z,48.23
2023-03-23T17:46:27.699Z,50.26
2023-03-23T17:48:56.937Z,49.47
2023-03-23T17:51:26.203Z,50.50
2023-03-23T17:53:56.403Z,50.22
2023-03-23T17:56:26.953Z,50.03
2023-03-23T17:58:56.276Z,50.13
2023-03-23T18:01:26.235Z,50.38
2023-03-23T18:03:56.423Z,51.04
2023-03-23T18:06:26.285Z,50.90
2023-03-23T18:08:57.228Z,51.55
2023-03-23T18:11:28.080Z,51.27
2023-03-23T18:13:57.321Z,51.33
2023-03-23T18:16:28.096Z,52.45
2023-03-23T18:18:58.156Z,51.66
2023-03-23T18:21:34.993Z,51.37
2023-03-23T18:24:04.411Z,52.55
2023-03-23T18:26:44.251Z,51.33
2023-03-23T18:29:15.301Z,51.93
2023-03-23T18:31:46.000Z,52.19
2023-03-23T18:34:15.708Z,53.06
2023-03-23T18:36:48.107Z,53.84
2023-03-23T18:39:20.332Z,54.65
2023-03-23T18:41:52.890Z,53.99
2023-03-23T18:44:23.060Z,54.67
2023-03-23T18:46:52.136Z,55.68
2023-03-23T18:49:29.014Z,55.11
2023-03-23T18:52:01.897Z,54.24
2023-03-23T18:54:36.907Z,53.83
2023-03-23T18:57:08.454Z,55.50
2023-03-23T18:59:40.897Z,55.63
2023-03-23T19:06:37.946Z,55.76
2023-03-23T19:09:07.527Z,55.75
2023-03-23T19:11:36.950Z,56.06
2023-03-23T19:14:07.127Z,56.28
2023-03-23T19:16:36.342Z,56.30
2023-03-23T19:19:08.612Z,56.55
2023-03-23T19:21:40.354Z,57.59
2023-03-23T19:24:10.356Z,58.84
2023-03-23T19:26:43.539Z,58.47
2023-03-23T19:31:50.030Z,59.32
2023-03-23T19:34:19.781Z,59.49
2023-03-23T19:36:59.628Z,60.33
2023-03-23T19:39:35.410Z,59.97
2023-03-23T19:42:08.141Z,61.54
2023-03-23T19:44:41.960Z,60.90
2023-03-23T19:47:14.124Z,61.77
2023-03-23T19:49:47.441Z,61.28
2023-03-23T19:52:18.746Z,60.94
2023-03-23T19:54:48.373Z,60.60
2023-03-23T19:57:18.268Z,61.24
2023-03-23T19:59:48.199Z,60.04
2023-03-23T20:02:27.837Z,60.50
2023-03-23T20:05:00.736Z,61.72
2023-03-23T20:07:29.972Z,60.73
2023-03-23T20:09:59.665Z,61.64
2023-03-23T20:12:30.962Z,60.95
2023-03-23T20:15:00.653Z,61.86
2023-03-23T20:17:31.644Z,61.59
2023-03-23T20:20:01.700Z,61.70
2023-03-23T20:22:33.655Z,61.56
2023-03-23T20:25:03.397Z,61.46
2023-03-23T20:27:40.421Z,61.40
2023-03-23T20:30:12.221Z,61.91
2023-03-23T20:32:41.868Z,62.34
2023-03-23T20:35:13.025Z,62.32
2023-03-23T20:37:42.823Z,61.65
2023-03-23T20:40:17.680Z,61.71
2023-03-23T20:42:53.139Z,62.31
2023-03-23T20:45:22.870Z,61.43
2023-03-23T20:47:52.993Z,62.17
2023-03-23T20:50:22.988Z,63.05
2023-03-23T20:52:53.385Z,63.87
2023-03-23T20:55:23.066Z,63.76
2023-03-23T20:57:52.879Z,63.81
2023-03-23T21:00:26.561Z,64.10
2023-03-23T21:02:56.242Z,64.18
2023-03-23T21:05:26.524Z,64.30
2023-03-23T21:07:58.506Z,64.55
2023-03-23T21:10:29.106Z,65.18
2023-03-23T21:12:59.017Z,64.21
2023-03-23T21:15:32.496Z,64.39
2023-03-23T21:18:02.019Z,64.98
2023-03-23T21:20:31.535Z,64.36
2023-03-23T21:23:08.224Z,64.32
2023-03-23T21:25:38.602Z,63.60
2023-03-23T21:28:09.650Z,63.26
2023-03-23T21:30:46.284Z,63.88
2023-03-23T21:33:17.760Z,63.90
2023-03-23T21:35:47.595Z,63.62
2023-03-23T21:38:20.389Z,63.81
2023-03-23T21:40:52.111Z,63.39
2023-03-23T21:43:27.880Z,63.22
2023-03-23T21:46:03.449Z,63.09
2023-03-23T21:48:33.599Z,63.08
2023-03-23T21:51:10.077Z,63.00
2023-03-23T21:53:39.508Z,62.66
2023-03-23T21:56:11.058Z,63.29
2023-03-23T21:58:43.066Z,63.13
2023-03-23T22:01:22.697Z,63.47
2023-03-23T22:03:52.187Z,64.24
2023-03-23T22:06:27.421Z,64.10
2023-03-23T22:08:57.836Z,63.70
2023-03-23T22:11:31.720Z,63.60
2023-03-23T22:14:01.764Z,63.59
2023-03-23T22:16:31.729Z,63.40
2023-03-23T22:19:02.766Z,64.69
2023-03-23T22:21:35.045Z,63.66
2023-03-23T22:24:04.358Z,64.65
2023-03-23T22:26:34.088Z,65.14
2023-03-23T22:29:05.077Z,65.58
2023-03-23T22:31:35.794Z,66.17
2023-03-23T22:34:06.861Z,66.19
2023-03-23T22:36:36.604Z,65.72
2023-03-23T22:39:08.002Z,65.08
2023-03-23T22:41:41.494Z,66.12
2023-03-23T22:44:18.963Z,66.67
2023-03-23T22:46:48.529Z,68.07
2023-03-23T22:49:18.428Z,66.80
2023-03-23T22:51:47.797Z,66.96
2023-03-23T22:54:17.478Z,67.32
2023-03-23T22:56:46.861Z,67.62
2023-03-23T22:59:17.968Z,67.94
2023-03-23T23:01:47.249Z,68.37
2023-03-23T23:04:17.890Z,68.97
2023-03-23T23:06:47.573Z,67.80
2023-03-23T23:09:17.508Z,68.35
2023-03-23T23:11:46.704Z,68.63
2023-03-23T23:14:16.206Z,69.10
2023-03-23T23:16:46.770Z,69.00
2023-03-23T23:19:17.026Z,69.35
2023-03-23T23:21:46.717Z,69.24
2023-03-23T23:24:17.107Z,69.04
2023-03-23T23:26:46.767Z,68.93
2023-03-23T23:29:16.683Z,70.31
2023-03-23T23:31:47.506Z,70.20
2023-03-23T23:34:16.587Z,70.40
2023-03-23T23:36:47.225Z,70.10
2023-03-23T23:39:17.048Z,69.93
2023-03-23T23:41:46.688Z,70.69
2023-03-23T23:44:17.206Z,70.85
2023-03-23T23:46:46.567Z,70.76
2023-03-23T23:49:16.492Z,70.57
2023-03-23T23:51:46.424Z,70.18
2023-03-23T23:54:24.141Z,69.55
2023-03-23T23:56:54.037Z,69.19
2023-03-23T23:59:23.728Z,68.92
